createdAt,value
2019-06-01T00:00:24.243Z,78.50
2019-06-01T00:02:56.991Z,78.60
2019-06-01T00:05:25.938Z,78.70
2019-06-01T00:07:55.126Z,78.70
2019-06-01T00:10:24.308Z,78.90
2019-06-01T00:12:53.508Z,78.50
2019-06-01T00:15:22.692Z,78.30
2019-06-01T00:17:51.877Z,78.60
2019-06-01T00:20:21.061Z,78.50
2019-06-01T00:22:51.550Z,78.30
2019-06-01T00:25:21.005Z,78.30
2019-06-01T00:27:50.265Z,78.70
2019-06-01T00:30:27.075Z,79.10
2019-06-01T00:32:51.341Z,79.30
2019-06-01T00:35:20.599Z,79.50
2019-06-01T00:37:50.179Z,80.00
2019-06-01T00:40:19.464Z,80.00
2019-06-01T00:42:48.652Z,80.00
2019-06-01T00:45:19.362Z,79.60
2019-06-01T00:47:48.916Z,79.90
2019-06-01T00:50:18.280Z,80.20
2019-06-01T00:52:47.595Z,80.10
2019-06-01T00:55:16.863Z,80.10
2019-06-01T00:57:46.105Z,80.10
2019-06-01T01:00:15.645Z,80.00
2019-06-01T01:02:45.846Z,80.00
2019-06-01T01:05:17.927Z,80.30
2019-06-01T01:07:48.680Z,80.40
2019-06-01T01:10:18.669Z,80.80
2019-06-01T01:13:04.648Z,80.90
2019-06-01T01:15:34.615Z,81.20
2019-06-01T01:18:04.796Z,81.30
2019-06-01T01:20:34.977Z,81.30
2019-06-01T01:23:04.824Z,81.20
2019-06-01T01:25:34.124Z,81.20
2019-06-01T01:28:03.336Z,80.90
2019-06-01T01:30:32.641Z,80.90
2019-06-01T01:33:02.942Z,81.20
2019-06-01T01:35:32.622Z,81.10
2019-06-01T01:38:03.067Z,81.20
2019-06-01T01:40:32.308Z,81.20
2019-06-01T01:43:01.524Z,81.30
2019-06-01T01:45:30.755Z,81.50
2019-06-01T01:48:01.292Z,81.60
2019-06-01T01:50:30.789Z,81.70
2019-06-01T01:53:00.274Z,81.80
2019-06-01T01:55:29.554Z,82.00
2019-06-01T01:57:59.529Z,82.00
2019-06-01T02:00:37.601Z,82.20
2019-06-01T02:03:07.529Z,82.20
2019-06-01T02:05:36.908Z,82.20
2019-06-01T02:10:35.628Z,82.30
2019-06-01T02:13:06.583Z,82.20
2019-06-01T02:15:37.261Z,82.30
2019-06-01T02:18:06.654Z,82.30
2019-06-01T02:20:36.027Z,82.40
2019-06-01T02:23:06.112Z,82.70
2019-06-01T02:25:35.467Z,82.70
2019-06-01T02:28:04.938Z,82.80
2019-06-01T02:30:34.162Z,82.80
2019-06-01T02:33:04.596Z,82.90
2019-06-01T02:35:34.153Z,83.00
2019-06-01T02:38:05.716Z,83.10
2019-06-01T02:40:35.357Z,83.10
2019-06-01T02:43:06.789Z,83.30
2019-06-01T02:45:36.233Z,83.30
2019-06-01T02:48:06.508Z,83.40
2019-06-01T02:50:36.141Z,83.40
2019-06-01T02:53:07.392Z,83.70
2019-06-01T02:55:36.593Z,83.80
2019-06-01T02:58:06.747Z,83.80
2019-06-01T03:00:49.575Z,84.00
2019-06-01T03:03:18.875Z,83.90
2019-06-01T03:05:48.106Z,83.90
2019-06-01T03:08:18.453Z,83.90
2019-06-01T03:10:47.920Z,84.00
2019-06-01T03:13:19.508Z,83.90
2019-06-01T03:15:50.256Z,84.00
2019-06-01T03:18:21.112Z,84.10
2019-06-01T03:20:51.689Z,84.10
2019-06-01T03:23:22.460Z,84.30
2019-06-01T03:25:53.561Z,84.60
2019-06-01T03:28:24.788Z,84.90
2019-06-01T03:30:54.079Z,84.70
2019-06-01T03:33:23.280Z,84.70
2019-06-01T03:35:52.592Z,84.60
2019-06-01T03:38:21.796Z,84.50
2019-06-01T03:40:51.025Z,84.60
2019-06-01T03:43:21.103Z,84.50
2019-06-01T03:45:50.325Z,84.50
2019-06-01T03:48:20.010Z,84.60
2019-06-01T03:50:49.228Z,84.60
2019-06-01T03:53:18.469Z,84.70
2019-06-01T03:55:47.685Z,84.80
2019-06-01T03:58:17.893Z,85.00
2019-06-01T04:00:47.121Z,85.10
2019-06-01T04:03:16.596Z,85.00
2019-06-01T04:05:45.849Z,84.90
2019-06-01T04:08:15.404Z,84.80
2019-06-01T04:10:44.643Z,84.70
2019-06-01T04:13:13.863Z,84.60
2019-06-01T04:15:43.081Z,84.40
2019-06-01T04:18:13.897Z,84.40
2019-06-01T04:20:43.427Z,84.40
2019-06-01T04:23:12.645Z,84.40
2019-06-01T04:25:41.855Z,84.30
2019-06-01T04:28:14.022Z,84.30
2019-06-01T04:30:43.229Z,84.40
2019-06-01T04:33:13.273Z,84.40
2019-06-01T04:35:42.649Z,84.40
2019-06-01T04:38:11.986Z,84.20
2019-06-01T04:40:41.363Z,84.10
2019-06-01T04:43:11.983Z,83.80
2019-06-01T04:45:41.376Z,83.50
2019-06-01T04:48:10.676Z,83.30
2019-06-01T04:50:40.492Z,83.20
2019-06-01T04:53:11.691Z,82.90
2019-06-01T04:55:40.620Z,82.50
2019-06-01T04:58:11.020Z,82.30
2019-06-01T05:00:40.404Z,82.20
2019-06-01T05:03:10.861Z,82.00
2019-06-01T05:05:40.539Z,81.90
2019-06-01T05:08:09.761Z,81.80
2019-06-01T05:10:39.001Z,81.50
2019-06-01T05:13:09.462Z,81.10
2019-06-01T05:18:08.437Z,81.00
2019-06-01T05:20:37.952Z,81.00
2019-06-01T05:23:08.458Z,80.50
2019-06-01T05:25:37.915Z,80.30
2019-06-01T05:28:07.152Z,80.50
2019-06-01T05:30:36.380Z,80.50
2019-06-01T05:33:21.381Z,80.20
2019-06-01T05:35:37.716Z,80.10
2019-06-01T05:38:08.138Z,79.90
2019-06-01T05:40:37.471Z,79.60
2019-06-01T05:43:09.674Z,79.50
2019-06-01T05:45:37.606Z,79.20
2019-06-01T05:48:06.863Z,78.90
2019-06-01T05:50:36.150Z,79.10
2019-06-01T05:53:05.374Z,79.00
2019-06-01T05:55:34.578Z,78.80
2019-06-01T05:58:03.807Z,78.70
2019-06-01T06:00:43.248Z,78.30
2019-06-01T06:03:15.511Z,78.40
2019-06-01T06:05:43.450Z,78.40
2019-06-01T06:08:13.159Z,78.40
2019-06-01T06:10:43.751Z,78.20
2019-06-01T06:13:13.351Z,78.00
2019-06-01T06:15:42.857Z,78.40
2019-06-01T06:18:12.067Z,78.30
2019-06-01T06:20:41.308Z,78.10
2019-06-01T06:23:10.512Z,78.30
2019-06-01T06:25:41.418Z,77.80
2019-06-01T06:28:10.656Z,77.70
2019-06-01T06:30:39.893Z,77.30
2019-06-01T06:33:09.125Z,77.10
2019-06-01T06:35:38.334Z,76.50
2019-06-01T06:38:07.560Z,76.70
2019-06-01T06:40:36.792Z,76.90
2019-06-01T06:43:18.600Z,77.00
2019-06-01T06:45:37.258Z,76.30
2019-06-01T06:48:06.502Z,76.40
2019-06-01T06:50:35.785Z,76.40
2019-06-01T06:53:05.022Z,76.50
2019-06-01T06:55:35.456Z,76.20
2019-06-01T06:58:04.700Z,75.80
2019-06-01T07:00:33.922Z,75.70
2019-06-01T07:03:03.216Z,75.30
2019-06-01T07:05:32.426Z,75.00
2019-06-01T07:08:01.825Z,75.40
2019-06-01T07:10:31.080Z,75.20
2019-06-01T07:13:00.353Z,75.70
2019-06-01T07:15:29.576Z,75.70
2019-06-01T07:17:58.786Z,75.80
2019-06-01T07:20:28.036Z,76.20
2019-06-01T07:22:59.659Z,76.10
2019-06-01T07:25:28.926Z,76.10
2019-06-01T07:27:58.205Z,75.60
2019-06-01T07:30:28.332Z,75.30
2019-06-01T07:32:59.117Z,75.30
2019-06-01T07:35:28.485Z,75.00
2019-06-01T07:37:57.844Z,74.80
2019-06-01T07:40:27.080Z,74.30
2019-06-01T07:42:57.380Z,74.10
2019-06-01T07:45:26.962Z,73.90
2019-06-01T07:47:56.295Z,73.70
2019-06-01T07:50:26.002Z,73.60
2019-06-01T07:52:56.436Z,73.20
2019-06-01T07:55:25.643Z,73.00
2019-06-01T07:57:55.200Z,72.50
2019-06-01T08:00:25.609Z,73.10
2019-06-01T08:02:55.326Z,72.80
2019-06-01T08:05:25.523Z,73.20
2019-06-01T08:07:55.760Z,72.90
2019-06-01T08:10:26.147Z,72.60
2019-06-01T08:12:56.241Z,72.50
2019-06-01T08:15:25.708Z,71.90
2019-06-01T08:17:55.016Z,70.90
2019-06-01T08:20:24.226Z,70.90
2019-06-01T08:22:53.454Z,71.80
2019-06-01T08:25:22.656Z,70.90
2019-06-01T08:27:51.887Z,71.60
2019-06-01T08:30:22.485Z,71.30
2019-06-01T08:32:51.900Z,71.30
2019-06-01T08:35:21.105Z,69.70
2019-06-01T08:37:50.586Z,70.70
2019-06-01T08:40:19.968Z,71.00
2019-06-01T08:42:49.192Z,71.00
2019-06-01T08:45:18.471Z,70.00
2019-06-01T08:47:47.772Z,70.40
2019-06-01T08:50:17.363Z,70.20
2019-06-01T08:52:46.578Z,70.00
2019-06-01T08:55:15.868Z,69.80
2019-06-01T08:57:45.126Z,70.50
2019-06-01T09:00:14.732Z,70.80
2019-06-01T09:02:44.036Z,70.40
2019-06-01T09:05:23.802Z,69.40
2019-06-01T09:07:44.608Z,69.60
2019-06-01T09:10:14.011Z,70.40
2019-06-01T09:12:44.300Z,69.60
2019-06-01T09:15:15.694Z,69.50
2019-06-01T09:17:44.898Z,68.90
2019-06-01T09:20:14.402Z,69.60
2019-06-01T09:22:43.611Z,68.90
2019-06-01T09:25:12.916Z,66.30
2019-06-01T09:27:42.142Z,68.10
2019-06-01T09:30:14.427Z,66.20
2019-06-01T09:32:43.660Z,66.20
2019-06-01T09:35:13.447Z,65.90
2019-06-01T09:37:45.630Z,64.10
2019-06-01T09:40:15.011Z,64.60
2019-06-01T09:42:44.272Z,66.40
2019-06-01T09:45:13.725Z,65.90
2019-06-01T09:47:42.951Z,64.80
2019-06-01T09:50:12.422Z,66.00
2019-06-01T09:52:41.630Z,64.20
2019-06-01T09:55:10.937Z,64.60
2019-06-01T09:57:40.149Z,64.90
2019-06-01T10:00:10.880Z,64.00
2019-06-01T10:02:40.917Z,64.30
2019-06-01T10:05:10.429Z,64.60
2019-06-01T10:07:39.653Z,64.20
2019-06-01T10:12:38.775Z,66.10
2019-06-01T10:15:08.521Z,65.40
2019-06-01T10:17:39.025Z,62.60
2019-06-01T10:20:09.909Z,63.00
2019-06-01T10:22:39.522Z,63.30
2019-06-01T10:25:09.577Z,64.30
2019-06-01T10:27:38.817Z,63.50
2019-06-01T10:30:10.122Z,65.30
2019-06-01T10:32:39.907Z,64.40
2019-06-01T10:35:09.687Z,63.20
2019-06-01T10:37:39.717Z,63.90
2019-06-01T10:40:09.391Z,64.80
2019-06-01T10:42:39.841Z,64.40
2019-06-01T10:45:10.984Z,62.50
2019-06-01T10:47:40.221Z,62.80
2019-06-01T10:50:09.692Z,62.10
2019-06-01T10:52:40.283Z,62.50
2019-06-01T10:55:09.789Z,62.80
2019-06-01T10:57:39.046Z,63.10
2019-06-01T11:00:12.490Z,63.00
2019-06-01T11:02:43.120Z,63.90
2019-06-01T11:05:13.097Z,64.50
2019-06-01T11:07:43.130Z,63.60
2019-06-01T11:10:14.626Z,63.40
2019-06-01T11:12:43.845Z,63.30
2019-06-01T11:15:13.519Z,62.90
2019-06-01T11:17:43.239Z,61.90
2019-06-01T11:20:12.612Z,59.90
2019-06-01T11:22:41.889Z,60.40
2019-06-01T11:25:11.184Z,60.30
2019-06-01T11:27:41.910Z,61.40
2019-06-01T11:30:23.263Z,61.00
2019-06-01T11:32:52.494Z,61.30
2019-06-01T11:35:21.706Z,61.60
2019-06-01T11:37:50.946Z,60.30
2019-06-01T11:40:20.226Z,60.90
2019-06-01T11:42:49.551Z,60.60
2019-06-01T11:45:18.761Z,60.00
2019-06-01T11:47:47.998Z,59.80
2019-06-01T11:50:17.235Z,61.40
2019-06-01T11:52:46.479Z,60.70
2019-06-01T11:55:15.968Z,60.60
2019-06-01T11:57:45.948Z,59.10
2019-06-01T12:00:16.601Z,59.10
2019-06-01T12:02:46.175Z,59.10
2019-06-01T12:05:16.620Z,59.50
2019-06-01T12:07:46.148Z,60.10
2019-06-01T12:10:15.517Z,59.90
2019-06-01T12:12:44.762Z,60.90
2019-06-01T12:15:14.572Z,60.40
2019-06-01T12:17:44.872Z,59.20
2019-06-01T12:20:14.713Z,60.70
2019-06-01T12:22:45.005Z,61.10
2019-06-01T12:25:14.675Z,60.70
2019-06-01T12:27:43.961Z,60.00
2019-06-01T12:30:13.365Z,58.30
2019-06-01T12:32:43.948Z,58.60
2019-06-01T12:35:13.744Z,59.20
2019-06-01T12:38:00.849Z,59.70
2019-06-01T12:40:14.169Z,60.70
2019-06-01T12:42:44.060Z,60.50
2019-06-01T12:45:22.419Z,61.00
2019-06-01T12:47:54.312Z,60.10
2019-06-01T12:50:20.691Z,58.10
2019-06-01T12:52:50.015Z,57.70
2019-06-01T12:55:19.308Z,58.10
2019-06-01T12:57:49.254Z,58.00
2019-06-01T13:00:19.671Z,58.20
2019-06-01T13:02:59.809Z,58.30
2019-06-01T13:05:19.929Z,58.40
2019-06-01T13:07:58.543Z,58.00
2019-06-01T13:10:20.076Z,59.20
2019-06-01T13:12:49.466Z,57.10
2019-06-01T13:15:19.033Z,57.50
2019-06-01T13:17:49.368Z,57.90
2019-06-01T13:20:19.797Z,57.90
2019-06-01T13:22:49.988Z,58.00
2019-06-01T13:25:19.697Z,58.40
2019-06-01T13:27:50.492Z,59.70
2019-06-01T13:30:20.250Z,59.30
2019-06-01T13:32:50.761Z,57.70
2019-06-01T13:35:20.176Z,56.90
2019-06-01T13:37:50.773Z,57.30
2019-06-01T13:40:20.309Z,58.00
2019-06-01T13:42:49.545Z,57.30
2019-06-01T13:45:18.928Z,56.20
2019-06-01T13:47:48.157Z,57.20
2019-06-01T13:52:48.094Z,58.00
2019-06-01T13:55:17.400Z,59.00
2019-06-01T13:57:46.656Z,58.60
2019-06-01T14:00:29.459Z,59.00
2019-06-01T14:02:50.538Z,58.90
2019-06-01T14:05:17.984Z,59.40
2019-06-01T14:07:47.521Z,58.00
2019-06-01T14:10:16.950Z,57.30
2019-06-01T14:12:47.429Z,58.80
2019-06-01T14:15:16.989Z,55.70
2019-06-01T14:17:46.227Z,55.90
2019-06-01T14:20:16.277Z,58.70
2019-06-01T14:22:45.795Z,56.00
2019-06-01T14:25:15.493Z,55.70
2019-06-01T14:27:46.063Z,53.70
2019-06-01T14:30:15.694Z,54.50
2019-06-01T14:32:46.129Z,55.10
2019-06-01T14:35:15.679Z,54.90
2019-06-01T14:37:44.896Z,53.90
2019-06-01T14:40:14.135Z,55.80
2019-06-01T14:42:43.336Z,55.00
2019-06-01T14:45:12.771Z,56.40
2019-06-01T14:47:43.648Z,56.50
2019-06-01T14:50:13.536Z,56.30
2019-06-01T14:52:42.756Z,56.00
2019-06-01T14:55:12.163Z,55.80
2019-06-01T14:57:41.511Z,55.60
2019-06-01T15:00:11.727Z,56.20
2019-06-01T15:02:40.940Z,55.80
2019-06-01T15:05:10.360Z,55.80
2019-06-01T15:07:39.583Z,53.10
2019-06-01T15:10:09.355Z,53.90
2019-06-01T15:12:38.562Z,52.50
2019-06-01T15:15:08.331Z,53.90
2019-06-01T15:17:37.798Z,54.70
2019-06-01T15:20:10.364Z,55.20
2019-06-01T15:22:39.643Z,54.90
2019-06-01T15:25:09.616Z,54.50
2019-06-01T15:27:38.868Z,55.30
2019-06-01T15:30:13.319Z,55.70
2019-06-01T15:32:42.548Z,54.80
2019-06-01T15:35:11.947Z,54.90
2019-06-01T15:37:41.180Z,55.30
2019-06-01T15:40:11.063Z,55.30
2019-06-01T15:42:40.517Z,54.10
2019-06-01T15:45:10.461Z,54.60
2019-06-01T15:47:39.700Z,55.30
2019-06-01T15:50:11.076Z,54.50
2019-06-01T15:52:40.287Z,53.40
2019-06-01T15:55:09.752Z,53.10
2019-06-01T15:57:38.956Z,54.10
2019-06-01T16:00:09.144Z,53.60
2019-06-01T16:02:38.595Z,52.50
2019-06-01T16:05:08.134Z,54.20
2019-06-01T16:07:37.352Z,54.50
2019-06-01T16:10:08.524Z,51.80
2019-06-01T16:12:37.931Z,52.80
2019-06-01T16:15:08.189Z,54.00
2019-06-01T16:17:37.460Z,53.40
2019-06-01T16:20:08.699Z,50.10
2019-06-01T16:22:38.996Z,51.90
2019-06-01T16:25:08.769Z,54.10
2019-06-01T16:27:38.049Z,52.30
2019-06-01T16:30:09.494Z,53.30
2019-06-01T16:32:39.831Z,49.70
2019-06-01T16:35:09.615Z,47.10
2019-06-01T16:37:38.855Z,47.60
2019-06-01T16:40:10.308Z,47.50
2019-06-01T16:45:09.048Z,45.80
2019-06-01T16:47:39.976Z,44.30
2019-06-01T16:50:09.639Z,44.30
2019-06-01T16:52:39.288Z,43.70
2019-06-01T16:55:10.977Z,44.30
2019-06-01T16:57:40.189Z,42.90
2019-06-01T17:00:10.672Z,43.70
2019-06-01T17:02:39.957Z,43.60
2019-06-01T17:05:09.661Z,41.80
2019-06-01T17:07:38.881Z,44.20
2019-06-01T17:10:24.281Z,43.60
2019-06-01T17:12:43.190Z,43.50
2019-06-01T17:15:12.896Z,42.60
2019-06-01T17:17:42.304Z,42.50
2019-06-01T17:20:40.888Z,41.00
2019-06-01T17:23:24.279Z,40.70
2019-06-01T17:25:42.187Z,40.20
2019-06-01T17:28:11.465Z,40.40
2019-06-01T17:30:40.869Z,38.70
2019-06-01T17:33:10.160Z,38.80
2019-06-01T17:35:39.404Z,39.30
2019-06-01T17:38:09.193Z,40.20
2019-06-01T17:43:10.254Z,41.30
2019-06-01T17:45:39.517Z,41.30
2019-06-01T17:48:23.461Z,41.00
2019-06-01T17:50:39.688Z,42.70
2019-06-01T17:53:08.979Z,43.10
2019-06-01T17:55:39.131Z,43.80
2019-06-01T17:58:10.074Z,44.10
2019-06-01T18:00:40.103Z,44.10
2019-06-01T18:03:10.012Z,44.50
2019-06-01T18:05:39.640Z,45.10
2019-06-01T18:08:10.205Z,46.00
2019-06-01T18:10:52.439Z,47.50
2019-06-01T18:13:10.703Z,48.30
2019-06-01T18:15:39.955Z,49.20
2019-06-01T18:18:10.379Z,49.70
2019-06-01T18:20:39.888Z,50.30
2019-06-01T18:23:11.028Z,51.20
2019-06-01T18:25:40.514Z,51.60
2019-06-01T18:30:41.385Z,52.80
2019-06-01T18:33:11.249Z,52.50
2019-06-01T18:35:40.578Z,53.30
2019-06-01T18:38:09.937Z,54.00
2019-06-01T18:40:39.172Z,54.20
2019-06-01T18:43:12.132Z,54.60
2019-06-01T18:45:41.584Z,54.80
2019-06-01T18:48:12.271Z,55.40
2019-06-01T18:50:42.080Z,55.60
2019-06-01T18:53:12.169Z,56.00
2019-06-01T18:55:41.596Z,56.60
2019-06-01T18:58:10.848Z,57.40
2019-06-01T19:00:40.378Z,57.30
2019-06-01T19:03:11.700Z,57.90
2019-06-01T19:05:40.966Z,58.70
2019-06-01T19:08:11.540Z,59.30
2019-06-01T19:10:41.308Z,59.50
2019-06-01T19:13:11.710Z,59.00
2019-06-01T19:15:41.661Z,60.00
2019-06-01T19:18:12.502Z,60.20
2019-06-01T19:20:41.944Z,60.70
2019-06-01T19:23:11.232Z,61.10
2019-06-01T19:25:40.448Z,61.50
2019-06-01T19:28:10.905Z,62.00
2019-06-01T19:30:43.584Z,63.00
2019-06-01T19:33:15.434Z,63.10
2019-06-01T19:35:43.928Z,63.10
2019-06-01T19:38:13.431Z,64.00
2019-06-01T19:40:43.245Z,63.80
2019-06-01T19:43:13.470Z,63.20
2019-06-01T19:45:43.013Z,63.50
2019-06-01T19:48:12.471Z,64.10
2019-06-01T19:50:41.906Z,64.00
2019-06-01T19:53:11.142Z,64.50
2019-06-01T19:55:41.156Z,65.50
2019-06-01T19:58:12.019Z,66.10
2019-06-01T20:00:41.877Z,67.10
2019-06-01T20:03:12.090Z,67.90
2019-06-01T20:05:41.598Z,67.70
2019-06-01T20:08:12.031Z,67.70
2019-06-01T20:10:41.395Z,67.50
2019-06-01T20:13:10.972Z,68.40
2019-06-01T20:15:41.391Z,68.50
2019-06-01T20:18:10.731Z,68.90
2019-06-01T20:20:40.022Z,68.90
2019-06-01T20:23:11.256Z,68.60
2019-06-01T20:25:40.752Z,69.30
2019-06-01T20:28:11.324Z,69.50
2019-06-01T20:30:40.737Z,69.70
2019-06-01T20:33:09.978Z,70.00
2019-06-01T20:35:39.199Z,70.00
2019-06-01T20:38:08.446Z,69.90
2019-06-01T20:40:37.677Z,70.20
2019-06-01T20:43:06.940Z,70.50
2019-06-01T20:45:36.156Z,70.30
2019-06-01T20:48:05.609Z,70.40
2019-06-01T20:50:34.840Z,70.70
2019-06-01T20:53:04.120Z,70.50
2019-06-01T20:55:33.347Z,70.40
2019-06-01T20:58:02.590Z,69.60
2019-06-01T21:00:32.135Z,70.50
2019-06-01T21:03:01.416Z,69.90
2019-06-01T21:05:30.978Z,70.90
2019-06-01T21:08:00.177Z,70.70
2019-06-01T21:10:29.413Z,71.20
2019-06-01T21:12:58.617Z,70.90
2019-06-01T21:15:27.858Z,70.70
2019-06-01T21:17:57.065Z,70.50
2019-06-01T21:20:29.819Z,71.20
2019-06-01T21:22:57.200Z,70.90
2019-06-01T21:25:26.727Z,71.30
2019-06-01T21:27:55.937Z,71.90
2019-06-01T21:30:25.931Z,72.10
2019-06-01T21:32:55.269Z,71.80
2019-06-01T21:35:25.583Z,72.30
2019-06-01T21:37:55.965Z,71.50
2019-06-01T21:40:25.733Z,72.00
2019-06-01T21:43:03.256Z,72.00
2019-06-01T21:45:26.024Z,71.60
2019-06-01T21:47:55.230Z,72.20
2019-06-01T21:50:24.475Z,72.10
2019-06-01T21:52:53.681Z,72.20
2019-06-01T21:55:22.909Z,72.50
2019-06-01T21:57:52.123Z,72.80
2019-06-01T22:00:29.016Z,73.60
2019-06-01T22:02:59.868Z,73.10
2019-06-01T22:05:30.609Z,73.80
2019-06-01T22:08:01.013Z,73.40
2019-06-01T22:10:30.315Z,73.90
2019-06-01T22:12:59.688Z,73.70
2019-06-01T22:15:28.929Z,73.70
2019-06-01T22:17:58.137Z,73.10
2019-06-01T22:20:28.203Z,73.10
2019-06-01T22:22:57.560Z,73.70
2019-06-01T22:25:28.048Z,73.70
2019-06-01T22:27:57.348Z,74.30
2019-06-01T22:30:26.584Z,74.40
2019-06-01T22:32:55.788Z,74.50
2019-06-01T22:35:25.024Z,74.30
2019-06-01T22:37:54.232Z,74.50
2019-06-01T22:40:24.873Z,73.70
2019-06-01T22:42:54.280Z,73.90
2019-06-01T22:45:24.638Z,73.80
2019-06-01T22:47:54.035Z,74.20
2019-06-01T22:50:23.248Z,74.10
2019-06-01T22:52:52.771Z,74.30
2019-06-01T22:55:22.275Z,74.60
2019-06-01T22:57:51.778Z,75.20
2019-06-01T23:00:21.484Z,75.20
2019-06-01T23:02:51.837Z,74.90
2019-06-01T23:05:21.077Z,74.70
2019-06-01T23:07:50.308Z,75.30
2019-06-01T23:10:24.474Z,74.70
2019-06-01T23:12:51.580Z,75.00
2019-06-01T23:15:21.389Z,75.10
2019-06-01T23:17:50.858Z,75.40
2019-06-01T23:20:21.628Z,75.20
2019-06-01T23:22:51.009Z,75.30
2019-06-01T23:25:20.546Z,75.50
2019-06-01T23:27:49.768Z,76.20
2019-06-01T23:30:19.072Z,75.90
2019-06-01T23:32:49.276Z,76.20
2019-06-01T23:35:18.490Z,76.00
2019-06-01T23:37:47.719Z,75.80
2019-06-01T23:40:16.968Z,75.60
2019-06-01T23:42:46.239Z,75.30
2019-06-01T23:45:15.543Z,75.60
2019-06-01T23:47:45.080Z,76.30
2019-06-01T23:50:14.417Z,76.10
2019-06-01T23:52:43.728Z,76.10
2019-06-01T23:55:13.148Z,75.90
2019-06-01T23:57:42.439Z,75.90
